Latest Weather Observations for Batchelor

IDD60801

Issued at 10:31 pm CST Friday 27 February 2015 (issued every 30 minutes, with the page automatically refreshed every 10 minutes)

About weather observations | Map of weather stations | Latest weather observations for NT | Other Formats
Station Details ID: 014272 Name: BATCHELOR AIRPORT Lat: -13.05 Lon: 131.03 Height: 104.0 m
Data from the previous 72 hours. | See also: Recent months at Batchelor
Date/Time
CST
Temp
°C
App
Temp
°C
Dew
Point
Rel
Hum
%
Delta-T
°C
Wind Press
QNH
hPa
Press
MSL
hPa
Rain
since 9 am
mm
Dir
 
Spd
km/h
Gust
km/h
Spd
kts
Gust
kts
27/10:30pm 25.9 31.5 24.9 94 0.7 N 4 6 2 3 1009.5 1008.8 25.0
27/10:00pm 25.8 31.4 24.8 94 0.7 N 4 7 2 4 1009.3 1008.6 25.0
27/09:30pm 25.9 31.4 24.7 93 0.8 NNW 4 4 2 2 1008.9 1008.2 24.8
27/09:00pm 25.9 31.3 24.5 92 1.0 N 4 6 2 3 1008.6 1007.9 24.8
27/08:30pm 25.8 30.7 24.4 92 1.0 NNW 6 9 3 5 1007.4 1006.7 24.8
27/08:00pm 25.9 30.8 24.7 93 0.8 NNW 7 13 4 7 1007.6 1006.9 24.8
27/07:30pm 25.9 30.8 24.7 93 0.8 NNW 7 9 4 5 1007.1 1006.4 24.8
27/07:00pm 25.9 30.7 24.5 92 1.0 NW 7 11 4 6 1006.2 1005.5 24.8
27/06:30pm 26.0 30.9 24.6 92 1.0 NW 7 11 4 6 1005.7 1004.9 24.8
27/06:00pm 26.0 30.9 24.4 91 1.1 NW 6 9 3 5 1005.6 1004.8 24.8
27/05:30pm 26.0 30.1 23.9 88 1.5 WNW 9 13 5 7 1005.1 1004.3 24.6
27/05:00pm 26.1 30.0 23.6 86 1.7 NW 9 13 5 7 1005.2 1004.4 24.4
27/04:30pm 27.0 31.3 23.7 82 2.3 W 7 13 4 7 1005.1 1004.3 24.4
27/04:00pm 27.4 31.7 24.3 83 2.2 WNW 9 15 5 8 1005.2 1004.4 24.4
27/03:30pm 26.4 29.9 24.2 88 1.5 WNW 13 22 7 12 1005.3 1004.5 24.4
27/03:00pm 25.1 29.4 24.2 95 0.6 NW 9 15 5 8 1005.2 1004.4 24.4
27/02:30pm 23.6 26.3 22.2 92 0.9 NW 11 20 6 11 1006.3 1005.6 20.6
27/02:00pm 25.9 28.3 22.2 80 2.5 W 13 24 7 13 1006.4 1005.7 1.0
27/01:56pm 26.6 29.5 23.1 81 2.4 WNW 13 28 7 15 1006.3 1005.6 1.0
27/01:30pm 31.6 36.2 24.2 65 5.2 WNW 7 15 4 8 1005.9 1005.1 0.2
27/01:00pm 31.4 36.4 24.8 68 4.7 NW 7 15 4 8 1006.4 1005.7 0.2
27/12:30pm 31.0 35.4 24.4 68 4.6 WNW 9 13 5 7 1007.2 1006.5 0.2
27/12:00pm 31.1 35.4 24.2 66 4.8 WNW 9 17 5 9 1007.8 1007.1 0.2
27/11:30am 31.0 36.1 24.6 68 4.5 SW 6 11 3 6 1008.0 1007.3 0.2
27/11:00am 30.4 35.6 24.8 72 3.9 WSW 6 9 3 5 1008.2 1007.5 0.2
27/10:30am 30.3 35.9 25.4 75 3.5 W 6 11 3 6 1008.6 1007.9 0.2
27/10:00am 29.5 34.8 25.3 78 3.0 W 7 13 4 7 1008.6 1007.9 0.2
27/09:30am 29.0 34.4 25.4 81 2.5 WNW 7 11 4 6 1008.5 1007.8 0.2
27/09:00am 28.4 34.0 25.4 84 2.1 W 6 9 3 5 1008.3 1007.6 34.4
27/08:30am 27.3 33.2 25.3 89 1.4 WNW 4 6 2 3 1008.1 1007.4 34.4
27/08:00am 26.1 32.6 25.1 94 0.7 CALM 0 0 0 0 1007.7 1007.0 34.4
27/07:30am 25.1 31.1 24.2 95 0.6 CALM 0 0 0 0 1007.1 1006.4 34.4
27/07:00am 24.9 30.7 24.0 95 0.6 CALM 0 0 0 0 1006.8 1006.1 34.4
27/06:30am 25.3 31.4 24.4 95 0.6 CALM 0 0 0 0 1006.6 1005.9 34.4
27/06:00am 25.3 31.4 24.4 95 0.6 CALM 0 2 0 1 1006.5 1005.8 34.4
27/05:30am 25.3 31.0 24.4 95 0.6 SW 2 4 1 2 1006.5 1005.8 34.4
27/05:00am 25.3 30.8 24.6 96 0.5 WSW 4 6 2 3 1006.4 1005.7 34.4
27/04:30am 25.3 31.1 24.6 96 0.5 NNW 2 4 1 2 1006.3 1005.6 34.4
27/04:00am 25.3 31.0 24.4 95 0.6 NNW 2 4 1 2 1006.3 1005.6 34.4
27/03:30am 25.4 31.2 24.5 95 0.6 NNW 2 6 1 3 1006.6 1005.9 34.4
27/03:00am 25.4 31.5 24.5 95 0.6 CALM 0 6 0 3 1006.5 1005.8 34.4
27/02:30am 25.5 31.0 24.6 95 0.6 NNE 4 6 2 3 1007.1 1006.4 34.4
27/02:00am 25.5 31.3 24.6 95 0.6 NNW 2 4 1 2 1007.7 1007.0 34.4
27/01:30am 25.6 31.1 24.7 95 0.6 N 4 6 2 3 1008.0 1007.3 34.2
27/01:00am 25.7 31.3 24.8 95 0.6 NW 4 4 2 2 1008.2 1007.5 34.2
27/12:30am 25.8 31.6 25.1 96 0.5 NW 4 6 2 3 1008.7 1008.0 34.2
27/12:00am 25.6 30.7 24.7 95 0.6 NNW 6 7 3 4 1008.9 1008.2 34.2
 
Date/Time
CST
Temp
°C
App
Temp
°C
Dew
Point
Rel
Hum
%
Delta-T
°C
Wind Press
QNH
hPa
Press
MSL
hPa
Rain
since 9 am
mm
Dir
 
Spd
km/h
Gust
km/h
Spd
kts
Gust
kts
26/11:30pm 25.4 31.2 24.5 95 0.6 WNW 2 4 1 2 1008.7 1008.0 34.2
26/11:00pm 25.5 31.1 24.8 96 0.5 WSW 4 6 2 3 1008.9 1008.2 34.2
26/10:30pm 25.3 31.1 24.6 96 0.5 WSW 2 4 1 2 1009.2 1008.5 34.2
26/10:00pm 24.9 30.1 24.2 96 0.5 WSW 4 6 2 3 1008.7 1008.0 34.2
26/09:30pm 24.7 30.5 24.0 96 0.5 CALM 0 2 0 1 1007.7 1007.0 34.2
26/09:00pm 24.3 29.5 23.6 96 0.5 N 2 6 1 3 1007.4 1006.7 34.2
26/08:30pm 23.9 29.3 23.2 96 0.5 CALM 0 0 0 0 1007.0 1006.3 34.2
26/08:00pm 23.7 28.5 22.9 95 0.5 S 2 4 1 2 1006.9 1006.2 34.2
26/07:30pm 23.6 28.0 22.8 95 0.5 WSW 4 9 2 5 1006.9 1006.2 33.8
26/07:00pm 23.3 25.3 22.3 94 0.7 NW 15 26 8 14 1007.2 1006.5 26.8
26/06:30pm 24.1 24.6 22.7 92 0.9 NW 24 35 13 19 1006.7 1006.0 18.2
26/06:25pm 24.7 25.6 22.0 85 1.8 NNW 20 32 11 17 1006.7 1006.0 8.4
26/06:00pm 29.7 33.4 23.9 71 4.0 W 11 20 6 11 1005.4 1004.6 0.4
26/05:30pm 30.6 34.5 24.3 69 4.4 W 11 17 6 9 1005.1 1004.3 0.4
26/05:00pm 32.0 36.8 24.1 63 5.5 WSW 6 11 3 6 1004.7 1003.9 0.4
26/04:30pm 31.6 36.2 23.2 61 5.8 SW 4 7 2 4 1004.7 1003.9 0.4
26/04:00pm 32.1 36.4 23.3 59 6.1 SW 6 9 3 5 1005.0 1004.2 0.4
26/03:30pm 31.7 35.7 22.7 59 6.2 SSW 6 9 3 5 1005.5 1004.7 0.4
26/03:00pm 32.0 36.6 24.1 63 5.5 SW 7 13 4 7 1005.3 1004.5 0.4
26/02:30pm 31.4 36.2 23.5 63 5.5 S 4 7 2 4 1005.8 1005.0 0.4
26/02:00pm 30.2 35.5 24.4 71 4.1 S 4 6 2 3 1006.5 1005.8 0.2
26/01:30pm 30.6 35.3 24.0 68 4.6 SSW 6 11 3 6 1007.2 1006.5 0.2
26/01:00pm 30.8 35.9 24.0 67 4.7 W 4 7 2 4 1007.5 1006.8 0.2
26/12:30pm 30.8 35.7 23.7 66 4.9 W 4 7 2 4 1008.0 1007.3 0.2
26/12:00pm 30.5 35.2 23.4 66 4.9 W 4 6 2 3 1008.5 1007.8 0.2
26/11:30am 29.8 34.2 23.5 69 4.4 SW 6 11 3 6 1008.7 1008.0 0.2
26/11:00am 29.3 33.7 23.5 71 4.0 SW 6 7 3 4 1008.8 1008.1 0.2
26/10:30am 28.6 32.9 23.7 75 3.4 WSW 7 9 4 5 1009.3 1008.6 0.2
26/10:00am 28.0 33.1 24.0 79 2.8 SW 4 9 2 5 1009.5 1008.8 0.2
26/09:30am 26.9 31.5 23.2 80 2.5 SW 4 6 2 3 1009.4 1008.7 0.0
26/09:00am 25.9 30.4 23.0 84 2.0 SSW 4 6 2 3 1009.5 1008.8 1.2
26/08:30am 24.9 30.5 23.5 92 1.0 CALM 0 0 0 0 1009.4 1008.7 1.2
26/08:00am 24.3 29.0 23.3 94 0.7 S 4 4 2 2 1008.9 1008.2 1.2
26/07:30am 23.7 29.0 23.0 96 0.5 CALM 0 0 0 0 1008.4 1007.7 1.2
26/07:00am 23.2 28.1 22.4 95 0.5 CALM 0 0 0 0 1008.1 1007.4 1.2
26/06:30am 23.3 28.4 22.6 96 0.5 CALM 0 0 0 0 1008.2 1007.5 1.2
26/06:00am 23.3 28.4 22.6 96 0.5 CALM 0 0 0 0 1008.0 1007.3 1.2
26/05:30am 23.6 28.8 22.9 96 0.5 CALM 0 0 0 0 1007.6 1006.9 1.2
26/05:00am 23.6 28.8 22.9 96 0.5 CALM 0 0 0 0 1007.0 1006.3 1.2
26/04:30am 23.6 28.8 22.9 96 0.5 CALM 0 0 0 0 1007.1 1006.4 1.2
26/04:00am 23.6 28.8 22.8 95 0.5 CALM 0 0 0 0 1007.2 1006.5 1.2
26/03:30am 23.8 29.1 23.0 95 0.5 CALM 0 0 0 0 1007.2 1006.5 1.2
26/03:00am 23.9 29.2 23.0 95 0.6 CALM 0 0 0 0 1007.5 1006.8 1.2
26/02:30am 24.0 29.3 23.1 95 0.6 CALM 0 0 0 0 1007.8 1007.1 1.2
26/02:00am 24.0 29.3 23.1 95 0.6 CALM 0 0 0 0 1007.8 1007.1 1.2
26/01:30am 24.2 29.6 23.2 94 0.7 CALM 0 0 0 0 1008.3 1007.6 1.2
26/01:00am 24.2 29.3 23.3 95 0.6 S 2 4 1 2 1008.6 1007.9 1.2
26/12:30am 24.4 29.2 23.5 95 0.6 SSW 4 9 2 5 1008.8 1008.1 1.2
26/12:00am 24.4 29.2 23.5 95 0.6 SSW 4 6 2 3 1009.1 1008.4 1.2
 
Date/Time
CST
Temp
°C
App
Temp
°C
Dew
Point
Rel
Hum
%
Delta-T
°C
Wind Press
QNH
hPa
Press
MSL
hPa
Rain
since 9 am
mm
Dir
 
Spd
km/h
Gust
km/h
Spd
kts
Gust
kts
25/11:30pm 24.5 29.7 23.6 95 0.6 SW 2 4 1 2 1009.4 1008.7 1.2
25/11:00pm 24.6 29.8 23.6 94 0.7 SW 2 2 1 1 1009.3 1008.6 1.2
25/10:30pm 24.6 29.5 23.6 94 0.7 SW 4 4 2 2 1009.1 1008.4 1.2
25/10:00pm 24.6 29.1 23.6 94 0.7 WSW 6 7 3 4 1008.8 1008.1 1.2
25/09:30pm 24.7 29.2 23.7 94 0.7 WSW 6 9 3 5 1008.6 1007.9 1.2
25/09:00pm 24.8 29.3 23.6 93 0.8 W 6 7 3 4 1008.9 1008.2 1.2
25/08:30pm 24.7 29.5 23.5 93 0.8 SSW 4 6 2 3 1008.4 1007.7 1.2
25/08:00pm 24.8 30.0 23.6 93 0.8 SW 2 4 1 2 1008.5 1007.8 1.2
25/07:30pm 24.9 29.8 23.7 93 0.8 SW 4 6 2 3 1008.8 1008.1 1.2
25/07:00pm 25.0 30.4 23.8 93 0.8 SW 2 4 1 2 1008.8 1008.1 1.2
25/06:30pm 25.0 29.6 23.8 93 0.8 W 6 9 3 5 1008.3 1007.6 1.2
25/06:00pm 25.0 29.7 23.4 91 1.1 SSW 4 9 2 5 1008.1 1007.4 0.4
25/05:30pm 25.3 28.2 23.2 88 1.4 S 13 22 7 12 1007.9 1007.2 0.2
25/05:00pm 25.8 29.0 23.1 85 1.8 S 11 19 6 10 1007.4 1006.7 0.2
25/04:30pm 27.6 30.5 23.2 77 3.0 SW 13 24 7 13 1007.2 1006.5 0.2
25/04:00pm 29.9 33.7 24.1 71 4.0 W 11 17 6 9 1006.4 1005.7 0.2
25/03:30pm 30.0 33.6 24.4 72 3.9 WNW 13 20 7 11 1006.5 1005.8 0.2
25/03:00pm 30.6 34.2 23.8 67 4.7 W 11 20 6 11 1006.5 1005.8 0.2
25/02:30pm 32.0 35.1 23.5 60 5.9 WNW 13 19 7 10 1006.4 1005.7 0.2
25/02:00pm 31.9 36.0 24.0 63 5.5 WNW 9 15 5 8 1007.4 1006.7 0.2
25/01:30pm 30.9 34.8 24.3 68 4.6 W 11 15 6 8 1008.2 1007.5 0.2
25/01:00pm 30.3 34.0 23.2 65 4.9 WSW 9 17 5 9 1008.8 1008.1 0.2
25/12:30pm 30.6 35.1 24.0 68 4.6 WSW 7 15 4 8 1009.5 1008.8 0.2
25/12:00pm 30.0 34.5 24.6 73 3.8 WSW 9 15 5 8 1010.2 1009.5 0.2
25/11:30am 29.6 34.4 24.5 74 3.6 SW 7 13 4 7 1010.6 1009.9 0.2
25/11:00am 29.0 33.9 24.3 76 3.3 WSW 6 9 3 5 1010.7 1010.0 0.2
25/10:30am 28.6 34.7 24.4 78 2.9 CALM 0 0 0 0 1011.0 1010.3 0.2
25/10:00am 28.1 33.7 24.3 80 2.6 WNW 2 4 1 2 1011.3 1010.6 0.0
25/09:30am 27.7 34.2 25.1 86 1.8 CALM 0 0 0 0 1011.0 1010.3 0.0
25/09:00am 26.9 33.2 24.7 88 1.5 CALM 0 0 0 0 1011.2 1010.5 0.8
25/08:30am 26.1 32.4 24.7 92 1.0 CALM 0 0 0 0 1011.0 1010.3 0.8
25/08:00am 25.9 32.3 24.9 94 0.7 CALM 0 0 0 0 1010.7 1010.0 0.8
25/07:30am 25.8 32.1 24.8 94 0.7 CALM 0 0 0 0 1010.4 1009.7 0.8
25/07:00am 25.6 31.4 24.6 94 0.7 WSW 2 4 1 2 1009.9 1009.2 0.8
25/06:30am 25.4 31.4 24.2 93 0.8 CALM 0 0 0 0 1009.8 1009.1 0.8
25/06:00am 25.4 31.5 24.4 94 0.7 CALM 0 0 0 0 1009.1 1008.4 0.8
25/05:30am 25.4 31.4 24.2 93 0.8 CALM 0 0 0 0 1008.8 1008.1 0.8
25/05:00am 25.4 31.1 24.4 94 0.7 WSW 2 4 1 2 1008.6 1007.9 0.8
25/04:30am 25.4 30.3 24.4 94 0.7 WSW 6 7 3 4 1008.4 1007.7 0.8
25/04:00am 25.5 31.0 24.6 95 0.6 WSW 4 6 2 3 1008.3 1007.6 0.8
25/03:30am 25.6 31.4 24.6 94 0.7 SW 2 6 1 3 1008.6 1007.9 0.8
25/03:00am 25.6 30.7 24.6 94 0.7 W 6 7 3 4 1008.5 1007.8 0.8
25/02:30am 25.8 32.0 24.6 93 0.8 CALM 0 0 0 0 1009.1 1008.4 0.8
25/02:00am 25.8 30.6 24.2 91 1.1 W 6 9 3 5 1009.0 1008.3 0.6
25/01:30am 25.9 30.8 24.3 91 1.1 WNW 6 9 3 5 1009.4 1008.7 0.4
25/01:00am 26.1 30.9 24.1 89 1.4 NW 6 7 3 4 1010.4 1009.7 0.2
25/12:30am 26.2 31.0 24.2 89 1.4 NW 6 9 3 5 1011.0 1010.3 0.2
25/12:00am 26.3 31.0 24.0 87 1.6 N 6 9 3 5 1011.2 1010.5 0.2
 
Date/Time
CST
Temp
°C
App
Temp
°C
Dew
Point
Rel
Hum
%
Delta-T
°C
Wind Press
QNH
hPa
Press
MSL
hPa
Rain
since 9 am
mm
Dir
 
Spd
km/h
Gust
km/h
Spd
kts
Gust
kts
24/11:30pm 26.4 31.5 24.1 87 1.6 WNW 4 6 2 3 1011.3 1010.6 0.2
24/11:00pm 26.4 31.8 23.9 86 1.7 W 2 6 1 3 1011.3 1010.6 0.2

Other Formats:

Comma delimited format used in spreadsheet applications
http://www.bom.gov.au/fwo/IDD60801/IDD60801.94125.axf

JavaScript Object Notation format (JSON) in row-major order
http://www.bom.gov.au/fwo/IDD60801/IDD60801.94125.json